Thursday, June 29, 2017, 10:22 AM EDT

KLKU, Louisa, Louisa County Airport/freeman Field

Location: Louisa, VA, United States Lat: 38.01
Local Time: 10:22 AM EDT (14:22 GMT) Lon: -77.97
Time Zone: US/Eastern Elev: 492 ft

Show me the last for .
Show Decoded

2017-06-29 09:55 METAR KLKU 291355Z AUTO 21006KT 10SM CLR 25/17 A3018 RMK AO2 =
2017-06-29 09:35 METAR KLKU 291335Z AUTO 19005KT 10SM CLR 24/17 A3018 RMK AO2 =
2017-06-29 09:15 METAR KLKU 291315Z AUTO 17005KT 10SM CLR 23/17 A3018 RMK AO2 =
2017-06-29 08:55 METAR KLKU 291255Z AUTO 18005KT 10SM CLR 21/16 A3019 RMK AO2 =
2017-06-29 08:35 METAR KLKU 291235Z AUTO 20006KT 10SM CLR 21/16 A3019 RMK AO2 =
2017-06-29 08:15 METAR KLKU 291215Z AUTO 18004KT 10SM CLR 20/16 A3019 RMK AO2 =
2017-06-29 07:55 METAR KLKU 291155Z AUTO 17005KT 10SM CLR 19/16 A3019 RMK AO2 =
2017-06-29 07:35 METAR KLKU 291135Z AUTO 18004KT 10SM CLR 19/15 A3018 RMK AO2 =
2017-06-29 07:15 METAR KLKU 291115Z AUTO 17004KT 10SM CLR 17/16 A3018 RMK AO2 =
2017-06-29 06:55 METAR KLKU 291055Z AUTO 00000KT 10SM CLR 16/14 A3018 RMK AO2 =
2017-06-29 06:35 METAR KLKU 291035Z AUTO 00000KT 10SM CLR 17/14 A3016 RMK AO2 =
2017-06-29 06:15 METAR KLKU 291015Z AUTO 00000KT 10SM CLR 18/14 A3016 RMK AO2 =
2017-06-29 05:55 METAR KLKU 290955Z AUTO 19003KT 10SM CLR 17/14 A3017 RMK AO2 =
2017-06-29 05:35 METAR KLKU 290935Z AUTO 00000KT 10SM CLR 17/14 A3017 RMK AO2 =
2017-06-29 05:15 METAR KLKU 290915Z AUTO 18003KT 10SM CLR 17/14 A3016 RMK AO2 =
2017-06-29 04:55 METAR KLKU 290855Z AUTO 18003KT 10SM CLR 17/14 A3016 RMK AO2 =
2017-06-29 04:35 METAR KLKU 290835Z AUTO 19003KT 10SM CLR 15/14 A3016 RMK AO2 =
2017-06-29 04:15 METAR KLKU 290815Z AUTO 00000KT 10SM CLR 14/13 A3016 RMK AO2 =
2017-06-29 03:55 METAR KLKU 290755Z AUTO 00000KT 10SM CLR 14/13 A3016 RMK AO2 =
2017-06-29 03:35 METAR KLKU 290735Z AUTO 00000KT 10SM CLR 14/13 A3017 RMK AO2 =
2017-06-29 03:15 METAR KLKU 290715Z AUTO 00000KT 10SM CLR 14/13 A3016 RMK AO2 =
2017-06-29 02:55 METAR KLKU 290655Z AUTO 00000KT 10SM CLR 14/13 A3016 RMK AO2 =
2017-06-29 02:35 METAR KLKU 290635Z AUTO 00000KT 10SM CLR 16/13 A3016 RMK AO2 =
2017-06-29 02:15 METAR KLKU 290615Z AUTO 00000KT 10SM CLR 16/14 A3016 RMK AO2 =
2017-06-29 01:55 METAR KLKU 290555Z AUTO 00000KT 10SM CLR 18/14 A3016 RMK AO2 =
2017-06-29 01:35 METAR KLKU 290535Z AUTO 16004KT 10SM CLR 18/14 A3016 RMK AO2 =
2017-06-29 01:15 METAR KLKU 290515Z AUTO 15003KT 10SM CLR 18/14 A3016 RMK AO2 =
2017-06-29 00:55 METAR KLKU 290455Z AUTO 00000KT 10SM CLR 19/14 A3016 RMK AO2 =
2017-06-29 00:35 METAR KLKU 290435Z AUTO 00000KT 10SM CLR 20/14 A3016 RMK AO2 =
2017-06-29 00:15 METAR KLKU 290415Z AUTO 18003KT 10SM CLR 21/14 A3017 RMK AO2 =
2017-06-28 23:55 METAR KLKU 290355Z AUTO 17003KT 10SM CLR 21/14 A3016 RMK AO2 =
2017-06-28 23:35 METAR KLKU 290335Z AUTO 18003KT 10SM CLR 21/14 A3017 RMK AO2 =
2017-06-28 23:15 METAR KLKU 290315Z AUTO 17004KT 10SM CLR 21/14 A3017 RMK AO2 =
2017-06-28 22:55 METAR KLKU 290255Z AUTO 17003KT 10SM CLR 21/14 A3017 RMK AO2 =
2017-06-28 22:35 METAR KLKU 290235Z AUTO 16004KT 10SM CLR 20/14 A3017 RMK AO2 =
2017-06-28 22:15 METAR KLKU 290215Z AUTO 16004KT 10SM CLR 19/15 A3017 RMK AO2 =
2017-06-28 21:55 METAR KLKU 290155Z AUTO 15003KT 10SM CLR 17/14 A3016 RMK AO2 =
2017-06-28 21:35 METAR KLKU 290135Z AUTO 00000KT 10SM CLR 17/14 A3016 RMK AO2 =
2017-06-28 21:15 METAR KLKU 290115Z AUTO 00000KT 10SM CLR 18/15 A3016 RMK AO2 =
2017-06-28 20:55 METAR KLKU 290055Z AUTO 00000KT 10SM CLR 20/16 A3015 RMK AO2 =
2017-06-28 20:35 METAR KLKU 290035Z AUTO 00000KT 10SM CLR 22/16 A3014 RMK AO2 =
2017-06-28 20:15 METAR KLKU 290015Z AUTO 00000KT 10SM CLR 24/15 A3014 RMK AO2 =
2017-06-28 19:55 METAR KLKU 282355Z AUTO 00000KT 10SM CLR 26/14 A3014 RMK AO2 =
2017-06-28 19:35 METAR KLKU 282335Z AUTO 00000KT 10SM CLR 26/14 A3015 RMK AO2 =
2017-06-28 19:15 METAR KLKU 282315Z AUTO 00000KT 10SM CLR 27/13 A3014 RMK AO2 =
2017-06-28 18:55 METAR KLKU 282255Z AUTO 18004KT 10SM CLR 27/13 A3015 RMK AO2 =
2017-06-28 18:35 METAR KLKU 282235Z AUTO 00000KT 10SM CLR 27/13 A3014 RMK AO2 =
2017-06-28 18:15 METAR KLKU 282215Z AUTO 21003KT 10SM CLR 28/12 A3014 RMK AO2 =
2017-06-28 17:55 METAR KLKU 282155Z AUTO 17004KT 10SM CLR 28/12 A3015 RMK AO2 =
2017-06-28 17:35 METAR KLKU 282135Z AUTO 23005KT 10SM CLR 28/12 A3016 RMK AO2 =
2017-06-28 17:15 METAR KLKU 282115Z AUTO 14006KT 10SM CLR 28/12 A3016 RMK AO2 =
2017-06-28 16:55 METAR KLKU 282055Z AUTO 18004KT 10SM CLR 28/12 A3016 RMK AO2 =
2017-06-28 16:35 METAR KLKU 282035Z AUTO 26003KT 10SM CLR 28/12 A3016 RMK AO2 =
2017-06-28 16:15 METAR KLKU 282015Z AUTO 17004KT 10SM CLR 28/11 A3016 RMK AO2 =
2017-06-28 15:55 METAR KLKU 281955Z AUTO 22003KT 10SM CLR 28/11 A3016 RMK AO2 =
2017-06-28 15:35 METAR KLKU 281935Z AUTO 28005KT 10SM CLR 29/11 A3018 RMK AO2 =
2017-06-28 15:15 METAR KLKU 281915Z AUTO 26003KT 10SM CLR 28/11 A3017 RMK AO2 =
2017-06-28 14:55 METAR KLKU 281855Z AUTO 19005KT 10SM CLR 28/12 A3017 RMK AO2 =
2017-06-28 14:35 METAR KLKU 281835Z AUTO 34003KT 10SM CLR 28/11 A3018 RMK AO2 =
2017-06-28 14:15 METAR KLKU 281815Z AUTO 24006KT 10SM CLR 28/11 A3018 RMK AO2 =
2017-06-28 13:55 METAR KLKU 281755Z AUTO 28004KT 10SM CLR 28/11 A3019 RMK AO2 =
2017-06-28 13:35 METAR KLKU 281735Z AUTO 29006KT 10SM SCT060 27/11 A3019 RMK AO2 =
2017-06-28 13:15 METAR KLKU 281715Z AUTO 35005KT 10SM SCT060 26/11 A3019 RMK AO2 =
2017-06-28 12:55 METAR KLKU 281655Z AUTO 04004KT 10SM CLR 27/11 A3019 RMK AO2 =
2017-06-28 12:35 METAR KLKU 281635Z AUTO 23004KT 10SM CLR 26/11 A3020 RMK AO2 =
2017-06-28 12:15 METAR KLKU 281615Z AUTO 33003KT 10SM SCT060 26/11 A3020 RMK AO2 =
2017-06-28 11:55 METAR KLKU 281555Z AUTO 01003KT 10SM CLR 26/10 A3020 RMK AO2 =
2017-06-28 11:35 METAR KLKU 281535Z AUTO 36004KT 10SM CLR 26/11 A3021 RMK AO2 =
2017-06-28 11:15 METAR KLKU 281515Z AUTO 25005KT 10SM CLR 26/11 A3021 RMK AO2 =
2017-06-28 10:55 METAR KLKU 281455Z AUTO 24003KT 10SM CLR 25/12 A3021 RMK AO2 =
2017-06-28 10:35 METAR KLKU 281435Z AUTO 00000KT 10SM CLR 24/12 A3021 RMK AO2 =

Support USWX by starting your Amazon purchase here.